sensor_id;sensor_type;location;lat;lon;timestamp;P1;durP1;ratioP1;P2;durP2;ratioP2
66830;SDS011;53739;44.224;22.528;2023-09-30T05:31:06;8.88;;;5.28;;
66830;SDS011;53739;44.224;22.528;2023-09-30T05:56:13;8.98;;;4.80;;
66830;SDS011;53739;44.224;22.528;2023-09-30T06:04:49;13.55;;;6.03;;
66830;SDS011;53739;44.224;22.528;2023-09-30T06:07:18;10.52;;;6.30;;
66830;SDS011;53739;44.224;22.528;2023-09-30T06:09:48;9.75;;;5.75;;
66830;SDS011;53739;44.224;22.528;2023-09-30T06:12:24;8.75;;;5.25;;
66830;SDS011;53739;44.224;22.528;2023-09-30T06:15:08;8.70;;;5.65;;
66830;SDS011;53739;44.224;22.528;2023-09-30T06:18:00;13.48;;;5.53;;
66830;SDS011;53739;44.224;22.528;2023-09-30T06:20:30;12.57;;;6.03;;
66830;SDS011;53739;44.224;22.528;2023-09-30T06:22:59;12.20;;;5.70;;
66830;SDS011;53739;44.224;22.528;2023-09-30T06:25:30;19.53;;;7.80;;
66830;SDS011;53739;44.224;22.528;2023-09-30T06:28:01;16.15;;;7.72;;
66830;SDS011;53739;44.224;22.528;2023-09-30T06:30:30;19.63;;;7.72;;
66830;SDS011;53739;44.224;22.528;2023-09-30T06:32:59;13.23;;;7.60;;
66830;SDS011;53739;44.224;22.528;2023-09-30T06:35:27;17.40;;;8.73;;
66830;SDS011;53739;44.224;22.528;2023-09-30T06:38:16;17.20;;;9.00;;
66830;SDS011;53739;44.224;22.528;2023-09-30T07:11:36;8.23;;;4.55;;
66830;SDS011;53739;44.224;22.528;2023-09-30T07:14:11;6.72;;;3.95;;
66830;SDS011;53739;44.224;22.528;2023-09-30T07:26:07;9.88;;;4.32;;
66830;SDS011;53739;44.224;22.528;2023-09-30T07:28:34;8.60;;;4.13;;
66830;SDS011;53739;44.224;22.528;2023-09-30T07:31:00;8.52;;;4.18;;
66830;SDS011;53739;44.224;22.528;2023-09-30T07:33:26;8.00;;;4.15;;
66830;SDS011;53739;44.224;22.528;2023-09-30T07:35:54;5.40;;;3.70;;
66830;SDS011;53739;44.224;22.528;2023-09-30T07:38:23;6.93;;;3.85;;
66830;SDS011;53739;44.224;22.528;2023-09-30T07:40:50;8.57;;;3.50;;
66830;SDS011;53739;44.224;22.528;2023-09-30T07:43:16;10.00;;;4.05;;
66830;SDS011;53739;44.224;22.528;2023-09-30T07:48:48;7.45;;;3.92;;
66830;SDS011;53739;44.224;22.528;2023-09-30T07:51:15;5.25;;;3.65;;
66830;SDS011;53739;44.224;22.528;2023-09-30T07:53:50;6.13;;;3.85;;
66830;SDS011;53739;44.224;22.528;2023-09-30T07:56:30;6.65;;;4.00;;
66830;SDS011;53739;44.224;22.528;2023-09-30T07:58:59;6.18;;;3.78;;
66830;SDS011;53739;44.224;22.528;2023-09-30T08:01:25;6.88;;;3.75;;
66830;SDS011;53739;44.224;22.528;2023-09-30T08:03:59;7.30;;;4.22;;
66830;SDS011;53739;44.224;22.528;2023-09-30T08:06:28;7.30;;;3.88;;
66830;SDS011;53739;44.224;22.528;2023-09-30T08:08:54;6.68;;;4.22;;
66830;SDS011;53739;44.224;22.528;2023-09-30T08:11:20;6.95;;;4.20;;
66830;SDS011;53739;44.224;22.528;2023-09-30T08:13:49;6.43;;;3.25;;
66830;SDS011;53739;44.224;22.528;2023-09-30T08:16:16;6.22;;;3.58;;
66830;SDS011;53739;44.224;22.528;2023-09-30T08:18:42;9.35;;;3.42;;
66830;SDS011;53739;44.224;22.528;2023-09-30T08:21:11;4.63;;;3.13;;
66830;SDS011;53739;44.224;22.528;2023-09-30T08:23:37;5.90;;;3.10;;
66830;SDS011;53739;44.224;22.528;2023-09-30T08:26:04;5.72;;;3.05;;
66830;SDS011;53739;44.224;22.528;2023-09-30T08:28:31;6.40;;;3.65;;
66830;SDS011;53739;44.224;22.528;2023-09-30T08:31:04;5.95;;;3.40;;
66830;SDS011;53739;44.224;22.528;2023-09-30T08:33:30;8.15;;;4.07;;
66830;SDS011;53739;44.224;22.528;2023-09-30T08:36:03;8.50;;;4.47;;
66830;SDS011;53739;44.224;22.528;2023-09-30T08:38:36;9.45;;;4.45;;
66830;SDS011;53739;44.224;22.528;2023-09-30T08:41:03;8.45;;;4.00;;
66830;SDS011;53739;44.224;22.528;2023-09-30T08:43:29;6.22;;;3.80;;
66830;SDS011;53739;44.224;22.528;2023-09-30T08:45:59;5.18;;;3.28;;
66830;SDS011;53739;44.224;22.528;2023-09-30T08:48:26;10.13;;;3.92;;
66830;SDS011;53739;44.224;22.528;2023-09-30T08:50:53;6.47;;;3.50;;
66830;SDS011;53739;44.224;22.528;2023-09-30T08:53:23;6.47;;;3.65;;
66830;SDS011;53739;44.224;22.528;2023-09-30T08:55:52;10.65;;;4.05;;
66830;SDS011;53739;44.224;22.528;2023-09-30T08:58:19;10.27;;;4.53;;
66830;SDS011;53739;44.224;22.528;2023-09-30T09:00:45;8.00;;;4.32;;
66830;SDS011;53739;44.224;22.528;2023-09-30T09:03:12;8.20;;;4.40;;
66830;SDS011;53739;44.224;22.528;2023-09-30T09:05:38;6.43;;;4.03;;
66830;SDS011;53739;44.224;22.528;2023-09-30T09:08:05;6.40;;;4.63;;
66830;SDS011;53739;44.224;22.528;2023-09-30T09:10:33;7.55;;;4.13;;
66830;SDS011;53739;44.224;22.528;2023-09-30T09:13:00;11.57;;;4.05;;
66830;SDS011;53739;44.224;22.528;2023-09-30T09:15:29;6.78;;;4.43;;
66830;SDS011;53739;44.224;22.528;2023-09-30T09:17:55;9.20;;;4.28;;
66830;SDS011;53739;44.224;22.528;2023-09-30T09:26:36;6.88;;;4.07;;
66830;SDS011;53739;44.224;22.528;2023-09-30T09:29:03;10.10;;;4.28;;
66830;SDS011;53739;44.224;22.528;2023-09-30T09:31:33;7.00;;;4.20;;
66830;SDS011;53739;44.224;22.528;2023-09-30T09:34:02;5.78;;;3.72;;
66830;SDS011;53739;44.224;22.528;2023-09-30T09:36:44;6.90;;;3.78;;
66830;SDS011;53739;44.224;22.528;2023-09-30T09:39:11;7.18;;;3.53;;
66830;SDS011;53739;44.224;22.528;2023-09-30T09:41:53;8.82;;;3.92;;
66830;SDS011;53739;44.224;22.528;2023-09-30T09:44:22;7.55;;;3.55;;
66830;SDS011;53739;44.224;22.528;2023-09-30T09:46:50;6.28;;;3.92;;
66830;SDS011;53739;44.224;22.528;2023-09-30T09:49:17;7.32;;;3.97;;
66830;SDS011;53739;44.224;22.528;2023-09-30T09:51:43;6.43;;;3.80;;
66830;SDS011;53739;44.224;22.528;2023-09-30T09:54:11;6.38;;;3.47;;
66830;SDS011;53739;44.224;22.528;2023-09-30T09:56:38;6.75;;;3.88;;
66830;SDS011;53739;44.224;22.528;2023-09-30T09:59:04;6.55;;;3.38;;
66830;SDS011;53739;44.224;22.528;2023-09-30T10:01:33;7.53;;;3.90;;
66830;SDS011;53739;44.224;22.528;2023-09-30T10:04:00;6.47;;;3.60;;
66830;SDS011;53739;44.224;22.528;2023-09-30T10:06:26;5.72;;;3.75;;
66830;SDS011;53739;44.224;22.528;2023-09-30T10:08:53;5.97;;;3.30;;
66830;SDS011;53739;44.224;22.528;2023-09-30T10:11:20;8.07;;;3.80;;
66830;SDS011;53739;44.224;22.528;2023-09-30T10:19:15;6.97;;;3.85;;
66830;SDS011;53739;44.224;22.528;2023-09-30T10:24:28;8.13;;;3.55;;
66830;SDS011;53739;44.224;22.528;2023-09-30T10:29:41;4.85;;;3.30;;
66830;SDS011;53739;44.224;22.528;2023-09-30T10:32:07;7.10;;;3.80;;
66830;SDS011;53739;44.224;22.528;2023-09-30T10:34:34;6.28;;;3.60;;
66830;SDS011;53739;44.224;22.528;2023-09-30T10:37:19;6.22;;;4.05;;
66830;SDS011;53739;44.224;22.528;2023-09-30T10:39:55;7.82;;;3.70;;
66830;SDS011;53739;44.224;22.528;2023-09-30T10:43:04;4.60;;;3.20;;
66830;SDS011;53739;44.224;22.528;2023-09-30T10:47:56;7.47;;;3.60;;
66830;SDS011;53739;44.224;22.528;2023-09-30T10:53:07;6.20;;;3.60;;
66830;SDS011;53739;44.224;22.528;2023-09-30T10:55:34;4.72;;;3.08;;
66830;SDS011;53739;44.224;22.528;2023-09-30T10:58:00;8.57;;;3.28;;
66830;SDS011;53739;44.224;22.528;2023-09-30T11:00:26;5.20;;;3.08;;
66830;SDS011;53739;44.224;22.528;2023-09-30T11:02:52;5.78;;;3.08;;
66830;SDS011;53739;44.224;22.528;2023-09-30T11:05:19;6.47;;;3.22;;
66830;SDS011;53739;44.224;22.528;2023-09-30T11:07:47;7.70;;;3.42;;
66830;SDS011;53739;44.224;22.528;2023-09-30T11:10:17;4.95;;;3.22;;
66830;SDS011;53739;44.224;22.528;2023-09-30T11:12:53;6.50;;;3.60;;
66830;SDS011;53739;44.224;22.528;2023-09-30T11:15:19;8.18;;;3.40;;
66830;SDS011;53739;44.224;22.528;2023-09-30T11:17:46;7.97;;;3.40;;
66830;SDS011;53739;44.224;22.528;2023-09-30T11:20:12;6.22;;;3.72;;
66830;SDS011;53739;44.224;22.528;2023-09-30T11:22:39;5.43;;;3.40;;
66830;SDS011;53739;44.224;22.528;2023-09-30T11:25:05;10.25;;;4.68;;
66830;SDS011;53739;44.224;22.528;2023-09-30T11:27:32;7.43;;;3.95;;
66830;SDS011;53739;44.224;22.528;2023-09-30T11:29:58;6.20;;;3.55;;
66830;SDS011;53739;44.224;22.528;2023-09-30T11:32:25;6.78;;;3.20;;
66830;SDS011;53739;44.224;22.528;2023-09-30T11:34:52;4.43;;;3.08;;
66830;SDS011;53739;44.224;22.528;2023-09-30T11:37:18;6.32;;;3.35;;
66830;SDS011;53739;44.224;22.528;2023-09-30T11:39:44;5.68;;;3.50;;
66830;SDS011;53739;44.224;22.528;2023-09-30T11:42:15;5.07;;;3.47;;
66830;SDS011;53739;44.224;22.528;2023-09-30T11:44:46;5.20;;;3.10;;
66830;SDS011;53739;44.224;22.528;2023-09-30T11:47:13;5.43;;;3.20;;
66830;SDS011;53739;44.224;22.528;2023-09-30T11:49:40;9.60;;;4.00;;
66830;SDS011;53739;44.224;22.528;2023-09-30T11:52:13;4.93;;;3.08;;
66830;SDS011;53739;44.224;22.528;2023-09-30T11:54:46;7.43;;;3.42;;
66830;SDS011;53739;44.224;22.528;2023-09-30T11:57:13;8.45;;;3.70;;
66830;SDS011;53739;44.224;22.528;2023-09-30T11:59:46;7.97;;;3.13;;
66830;SDS011;53739;44.224;22.528;2023-09-30T12:02:13;5.13;;;3.28;;
66830;SDS011;53739;44.224;22.528;2023-09-30T12:04:40;7.93;;;4.05;;
66830;SDS011;53739;44.224;22.528;2023-09-30T12:07:06;4.95;;;3.10;;
66830;SDS011;53739;44.224;22.528;2023-09-30T12:09:33;4.43;;;2.80;;
66830;SDS011;53739;44.224;22.528;2023-09-30T12:12:02;5.53;;;2.72;;
66830;SDS011;53739;44.224;22.528;2023-09-30T12:14:28;5.43;;;2.70;;
66830;SDS011;53739;44.224;22.528;2023-09-30T12:16:56;4.93;;;2.75;;
66830;SDS011;53739;44.224;22.528;2023-09-30T12:19:22;4.47;;;3.03;;
66830;SDS011;53739;44.224;22.528;2023-09-30T12:21:49;6.88;;;3.20;;
66830;SDS011;53739;44.224;22.528;2023-09-30T12:24:15;4.63;;;3.10;;
66830;SDS011;53739;44.224;22.528;2023-09-30T12:26:49;5.43;;;3.42;;
66830;SDS011;53739;44.224;22.528;2023-09-30T12:29:16;4.57;;;2.65;;
66830;SDS011;53739;44.224;22.528;2023-09-30T12:31:46;6.78;;;3.20;;
66830;SDS011;53739;44.224;22.528;2023-09-30T12:34:13;7.18;;;3.10;;
66830;SDS011;53739;44.224;22.528;2023-09-30T12:36:39;6.20;;;3.00;;
66830;SDS011;53739;44.224;22.528;2023-09-30T12:39:06;5.38;;;3.03;;
66830;SDS011;53739;44.224;22.528;2023-09-30T12:41:42;4.95;;;2.90;;
66830;SDS011;53739;44.224;22.528;2023-09-30T12:44:08;4.63;;;3.03;;
66830;SDS011;53739;44.224;22.528;2023-09-30T12:46:53;7.78;;;3.15;;
66830;SDS011;53739;44.224;22.528;2023-09-30T12:49:20;5.88;;;2.63;;
66830;SDS011;53739;44.224;22.528;2023-09-30T12:51:53;15.40;;;3.22;;
66830;SDS011;53739;44.224;22.528;2023-09-30T12:54:21;4.70;;;3.03;;
66830;SDS011;53739;44.224;22.528;2023-09-30T12:56:56;5.65;;;2.92;;
66830;SDS011;53739;44.224;22.528;2023-09-30T12:59:25;5.65;;;3.30;;
66830;SDS011;53739;44.224;22.528;2023-09-30T13:01:52;4.95;;;2.55;;
66830;SDS011;53739;44.224;22.528;2023-09-30T13:04:18;6.35;;;3.10;;
66830;SDS011;53739;44.224;22.528;2023-09-30T13:06:44;6.32;;;2.83;;
66830;SDS011;53739;44.224;22.528;2023-09-30T13:09:11;4.93;;;3.03;;
66830;SDS011;53739;44.224;22.528;2023-09-30T13:11:37;4.57;;;3.13;;
66830;SDS011;53739;44.224;22.528;2023-09-30T13:14:38;4.65;;;2.97;;
66830;SDS011;53739;44.224;22.528;2023-09-30T13:17:00;4.40;;;2.65;;
66830;SDS011;53739;44.224;22.528;2023-09-30T13:19:29;6.15;;;3.10;;
66830;SDS011;53739;44.224;22.528;2023-09-30T13:21:58;11.50;;;3.00;;
66830;SDS011;53739;44.224;22.528;2023-09-30T13:24:24;5.35;;;2.80;;
66830;SDS011;53739;44.224;22.528;2023-09-30T13:26:52;4.88;;;3.60;;
66830;SDS011;53739;44.224;22.528;2023-09-30T13:29:18;5.28;;;2.90;;
66830;SDS011;53739;44.224;22.528;2023-09-30T13:31:44;7.03;;;3.05;;
66830;SDS011;53739;44.224;22.528;2023-09-30T13:34:11;4.32;;;2.58;;
66830;SDS011;53739;44.224;22.528;2023-09-30T13:36:40;4.68;;;2.88;;
66830;SDS011;53739;44.224;22.528;2023-09-30T13:39:06;3.65;;;2.20;;
66830;SDS011;53739;44.224;22.528;2023-09-30T13:41:35;6.20;;;3.10;;
66830;SDS011;53739;44.224;22.528;2023-09-30T13:44:02;7.97;;;2.78;;
66830;SDS011;53739;44.224;22.528;2023-09-30T13:46:33;7.88;;;2.50;;
66830;SDS011;53739;44.224;22.528;2023-09-30T13:48:59;4.35;;;2.88;;
66830;SDS011;53739;44.224;22.528;2023-09-30T13:51:25;5.00;;;3.00;;
66830;SDS011;53739;44.224;22.528;2023-09-30T13:53:51;7.13;;;3.30;;
66830;SDS011;53739;44.224;22.528;2023-09-30T13:56:21;10.63;;;2.63;;
66830;SDS011;53739;44.224;22.528;2023-09-30T13:58:49;4.28;;;2.67;;
66830;SDS011;53739;44.224;22.528;2023-09-30T14:01:15;4.65;;;3.00;;
66830;SDS011;53739;44.224;22.528;2023-09-30T14:03:42;7.03;;;3.22;;
66830;SDS011;53739;44.224;22.528;2023-09-30T14:06:15;5.93;;;2.75;;
66830;SDS011;53739;44.224;22.528;2023-09-30T14:08:41;3.97;;;2.83;;
66830;SDS011;53739;44.224;22.528;2023-09-30T14:11:11;6.75;;;3.03;;
66830;SDS011;53739;44.224;22.528;2023-09-30T14:13:38;7.32;;;3.00;;
66830;SDS011;53739;44.224;22.528;2023-09-30T14:16:05;6.03;;;2.72;;
66830;SDS011;53739;44.224;22.528;2023-09-30T14:18:31;5.57;;;3.63;;
66830;SDS011;53739;44.224;22.528;2023-09-30T14:20:58;6.53;;;3.15;;
66830;SDS011;53739;44.224;22.528;2023-09-30T14:23:26;6.18;;;3.20;;
66830;SDS011;53739;44.224;22.528;2023-09-30T14:25:54;4.03;;;2.90;;
66830;SDS011;53739;44.224;22.528;2023-09-30T14:28:24;7.82;;;3.38;;
66830;SDS011;53739;44.224;22.528;2023-09-30T14:30:51;4.22;;;2.83;;
66830;SDS011;53739;44.224;22.528;2023-09-30T14:33:18;4.50;;;2.75;;
66830;SDS011;53739;44.224;22.528;2023-09-30T14:35:45;6.10;;;3.20;;
66830;SDS011;53739;44.224;22.528;2023-09-30T14:38:11;4.78;;;2.95;;
66830;SDS011;53739;44.224;22.528;2023-09-30T14:40:38;5.47;;;3.10;;
66830;SDS011;53739;44.224;22.528;2023-09-30T14:43:07;7.20;;;3.22;;
66830;SDS011;53739;44.224;22.528;2023-09-30T14:45:38;6.63;;;3.33;;
66830;SDS011;53739;44.224;22.528;2023-09-30T14:48:05;4.43;;;2.88;;
66830;SDS011;53739;44.224;22.528;2023-09-30T14:50:31;4.80;;;2.80;;
66830;SDS011;53739;44.224;22.528;2023-09-30T14:52:57;7.82;;;3.15;;
66830;SDS011;53739;44.224;22.528;2023-09-30T14:55:24;5.30;;;3.20;;
66830;SDS011;53739;44.224;22.528;2023-09-30T14:57:50;5.93;;;2.97;;
66830;SDS011;53739;44.224;22.528;2023-09-30T15:00:16;4.72;;;2.80;;
66830;SDS011;53739;44.224;22.528;2023-09-30T15:02:42;4.38;;;3.33;;
66830;SDS011;53739;44.224;22.528;2023-09-30T15:05:09;6.63;;;3.30;;
66830;SDS011;53739;44.224;22.528;2023-09-30T15:07:35;5.97;;;3.08;;
66830;SDS011;53739;44.224;22.528;2023-09-30T15:10:03;8.48;;;3.30;;
66830;SDS011;53739;44.224;22.528;2023-09-30T15:12:29;6.80;;;2.97;;
66830;SDS011;53739;44.224;22.528;2023-09-30T15:14:55;8.30;;;3.03;;
66830;SDS011;53739;44.224;22.528;2023-09-30T15:17:21;5.05;;;3.00;;
66830;SDS011;53739;44.224;22.528;2023-09-30T15:19:48;5.85;;;3.28;;
66830;SDS011;53739;44.224;22.528;2023-09-30T15:22:14;5.70;;;3.20;;
66830;SDS011;53739;44.224;22.528;2023-09-30T15:24:41;5.65;;;3.03;;
66830;SDS011;53739;44.224;22.528;2023-09-30T15:27:07;9.48;;;3.50;;
66830;SDS011;53739;44.224;22.528;2023-09-30T15:29:33;5.10;;;2.88;;
66830;SDS011;53739;44.224;22.528;2023-09-30T15:31:59;5.28;;;3.10;;
66830;SDS011;53739;44.224;22.528;2023-09-30T15:34:27;6.97;;;2.97;;
66830;SDS011;53739;44.224;22.528;2023-09-30T15:36:54;6.57;;;2.95;;
66830;SDS011;53739;44.224;22.528;2023-09-30T15:39:20;5.60;;;3.25;;
66830;SDS011;53739;44.224;22.528;2023-09-30T15:41:46;5.32;;;2.95;;
66830;SDS011;53739;44.224;22.528;2023-09-30T15:44:12;5.97;;;3.13;;
66830;SDS011;53739;44.224;22.528;2023-09-30T15:46:38;5.95;;;3.45;;
66830;SDS011;53739;44.224;22.528;2023-09-30T15:49:04;5.30;;;2.78;;
66830;SDS011;53739;44.224;22.528;2023-09-30T15:51:30;5.32;;;3.08;;
66830;SDS011;53739;44.224;22.528;2023-09-30T15:53:57;7.55;;;3.00;;
66830;SDS011;53739;44.224;22.528;2023-09-30T15:56:23;6.97;;;3.10;;
66830;SDS011;53739;44.224;22.528;2023-09-30T15:58:49;5.63;;;3.15;;
66830;SDS011;53739;44.224;22.528;2023-09-30T16:01:16;5.20;;;3.58;;
66830;SDS011;53739;44.224;22.528;2023-09-30T16:03:42;7.10;;;3.38;;
66830;SDS011;53739;44.224;22.528;2023-09-30T16:06:08;7.32;;;3.33;;
66830;SDS011;53739;44.224;22.528;2023-09-30T16:08:34;12.13;;;3.35;;
66830;SDS011;53739;44.224;22.528;2023-09-30T16:11:01;7.60;;;3.58;;
66830;SDS011;53739;44.224;22.528;2023-09-30T16:13:30;4.97;;;3.20;;
66830;SDS011;53739;44.224;22.528;2023-09-30T16:15:57;6.28;;;3.30;;
66830;SDS011;53739;44.224;22.528;2023-09-30T16:18:23;9.10;;;3.65;;
66830;SDS011;53739;44.224;22.528;2023-09-30T16:20:50;5.13;;;3.58;;
66830;SDS011;53739;44.224;22.528;2023-09-30T16:23:16;6.75;;;3.80;;
66830;SDS011;53739;44.224;22.528;2023-09-30T16:25:42;6.35;;;3.22;;
66830;SDS011;53739;44.224;22.528;2023-09-30T16:28:08;5.88;;;3.45;;
66830;SDS011;53739;44.224;22.528;2023-09-30T16:30:34;7.97;;;3.33;;
66830;SDS011;53739;44.224;22.528;2023-09-30T16:33:01;7.03;;;3.90;;
66830;SDS011;53739;44.224;22.528;2023-09-30T16:35:27;6.35;;;3.90;;
66830;SDS011;53739;44.224;22.528;2023-09-30T16:37:53;7.03;;;3.47;;
66830;SDS011;53739;44.224;22.528;2023-09-30T16:40:19;7.50;;;3.72;;
66830;SDS011;53739;44.224;22.528;2023-09-30T16:42:45;5.68;;;3.47;;
66830;SDS011;53739;44.224;22.528;2023-09-30T16:45:11;6.75;;;3.95;;
66830;SDS011;53739;44.224;22.528;2023-09-30T16:47:38;7.50;;;3.80;;
66830;SDS011;53739;44.224;22.528;2023-09-30T16:50:05;5.72;;;3.65;;
66830;SDS011;53739;44.224;22.528;2023-09-30T16:52:31;7.95;;;3.65;;
66830;SDS011;53739;44.224;22.528;2023-09-30T16:54:57;6.53;;;3.63;;
66830;SDS011;53739;44.224;22.528;2023-09-30T16:57:24;5.32;;;3.53;;
66830;SDS011;53739;44.224;22.528;2023-09-30T16:59:50;6.60;;;3.42;;
66830;SDS011;53739;44.224;22.528;2023-09-30T17:02:16;6.95;;;4.32;;
66830;SDS011;53739;44.224;22.528;2023-09-30T17:04:43;6.03;;;3.88;;
66830;SDS011;53739;44.224;22.528;2023-09-30T17:07:10;7.15;;;4.07;;
66830;SDS011;53739;44.224;22.528;2023-09-30T17:09:36;5.97;;;3.67;;
66830;SDS011;53739;44.224;22.528;2023-09-30T17:12:02;6.20;;;3.72;;
66830;SDS011;53739;44.224;22.528;2023-09-30T17:14:31;5.97;;;3.88;;
66830;SDS011;53739;44.224;22.528;2023-09-30T17:16:58;7.28;;;4.20;;
66830;SDS011;53739;44.224;22.528;2023-09-30T17:19:29;8.82;;;4.90;;
66830;SDS011;53739;44.224;22.528;2023-09-30T17:21:55;10.05;;;4.03;;
66830;SDS011;53739;44.224;22.528;2023-09-30T17:24:21;8.57;;;3.83;;
66830;SDS011;53739;44.224;22.528;2023-09-30T17:26:48;9.77;;;4.80;;
66830;SDS011;53739;44.224;22.528;2023-09-30T17:29:14;11.30;;;4.47;;
66830;SDS011;53739;44.224;22.528;2023-09-30T17:31:40;8.05;;;3.85;;
66830;SDS011;53739;44.224;22.528;2023-09-30T17:34:06;6.50;;;4.15;;
66830;SDS011;53739;44.224;22.528;2023-09-30T17:36:32;6.35;;;4.00;;
66830;SDS011;53739;44.224;22.528;2023-09-30T17:38:58;5.70;;;3.90;;
66830;SDS011;53739;44.224;22.528;2023-09-30T17:41:25;7.55;;;4.68;;
66830;SDS011;53739;44.224;22.528;2023-09-30T17:43:51;7.10;;;3.97;;
66830;SDS011;53739;44.224;22.528;2023-09-30T17:46:17;6.75;;;4.00;;
66830;SDS011;53739;44.224;22.528;2023-09-30T17:48:44;6.72;;;4.28;;
66830;SDS011;53739;44.224;22.528;2023-09-30T17:51:13;7.30;;;3.88;;
66830;SDS011;53739;44.224;22.528;2023-09-30T17:53:40;6.00;;;3.92;;
66830;SDS011;53739;44.224;22.528;2023-09-30T17:56:12;8.25;;;4.28;;
66830;SDS011;53739;44.224;22.528;2023-09-30T17:58:38;7.20;;;3.80;;
66830;SDS011;53739;44.224;22.528;2023-09-30T18:01:05;7.50;;;4.15;;
66830;SDS011;53739;44.224;22.528;2023-09-30T18:03:31;6.97;;;4.40;;
66830;SDS011;53739;44.224;22.528;2023-09-30T18:06:03;6.90;;;4.22;;
66830;SDS011;53739;44.224;22.528;2023-09-30T18:08:30;6.25;;;4.00;;
66830;SDS011;53739;44.224;22.528;2023-09-30T18:10:56;6.45;;;4.05;;
66830;SDS011;53739;44.224;22.528;2023-09-30T18:13:22;7.13;;;4.05;;
66830;SDS011;53739;44.224;22.528;2023-09-30T18:15:48;5.40;;;3.60;;
66830;SDS011;53739;44.224;22.528;2023-09-30T18:18:14;5.93;;;4.40;;
66830;SDS011;53739;44.224;22.528;2023-09-30T18:20:41;7.72;;;3.65;;
66830;SDS011;53739;44.224;22.528;2023-09-30T18:23:07;9.13;;;4.47;;
66830;SDS011;53739;44.224;22.528;2023-09-30T18:25:33;5.72;;;3.97;;
66830;SDS011;53739;44.224;22.528;2023-09-30T18:28:01;5.93;;;4.03;;
66830;SDS011;53739;44.224;22.528;2023-09-30T18:30:30;6.95;;;4.38;;
66830;SDS011;53739;44.224;22.528;2023-09-30T18:32:57;6.82;;;3.83;;
66830;SDS011;53739;44.224;22.528;2023-09-30T18:35:23;7.00;;;4.10;;
66830;SDS011;53739;44.224;22.528;2023-09-30T18:37:50;5.63;;;3.78;;
66830;SDS011;53739;44.224;22.528;2023-09-30T18:40:16;7.50;;;4.00;;
66830;SDS011;53739;44.224;22.528;2023-09-30T18:42:42;6.32;;;3.58;;
66830;SDS011;53739;44.224;22.528;2023-09-30T18:45:08;6.50;;;3.88;;
66830;SDS011;53739;44.224;22.528;2023-09-30T18:47:34;6.90;;;4.05;;
66830;SDS011;53739;44.224;22.528;2023-09-30T18:50:00;8.07;;;4.18;;
66830;SDS011;53739;44.224;22.528;2023-09-30T18:52:28;7.82;;;4.18;;
66830;SDS011;53739;44.224;22.528;2023-09-30T18:54:54;9.55;;;4.13;;
66830;SDS011;53739;44.224;22.528;2023-09-30T18:57:20;6.25;;;4.25;;
66830;SDS011;53739;44.224;22.528;2023-09-30T18:59:47;8.07;;;4.10;;
66830;SDS011;53739;44.224;22.528;2023-09-30T19:02:20;11.35;;;5.00;;
66830;SDS011;53739;44.224;22.528;2023-09-30T19:04:49;10.68;;;4.10;;
66830;SDS011;53739;44.224;22.528;2023-09-30T19:07:21;6.75;;;3.88;;
66830;SDS011;53739;44.224;22.528;2023-09-30T19:09:47;6.07;;;4.33;;
66830;SDS011;53739;44.224;22.528;2023-09-30T19:12:13;6.10;;;4.32;;
66830;SDS011;53739;44.224;22.528;2023-09-30T19:14:39;9.90;;;4.50;;
66830;SDS011;53739;44.224;22.528;2023-09-30T19:17:09;6.72;;;4.43;;
66830;SDS011;53739;44.224;22.528;2023-09-30T19:19:35;7.57;;;4.55;;
66830;SDS011;53739;44.224;22.528;2023-09-30T19:22:01;6.75;;;4.35;;
66830;SDS011;53739;44.224;22.528;2023-09-30T19:24:36;9.32;;;4.25;;
66830;SDS011;53739;44.224;22.528;2023-09-30T19:27:02;8.38;;;4.32;;
66830;SDS011;53739;44.224;22.528;2023-09-30T19:29:29;9.07;;;4.93;;
66830;SDS011;53739;44.224;22.528;2023-09-30T19:31:57;6.70;;;4.50;;
66830;SDS011;53739;44.224;22.528;2023-09-30T19:34:25;6.55;;;4.20;;
66830;SDS011;53739;44.224;22.528;2023-09-30T19:36:51;8.32;;;4.45;;
66830;SDS011;53739;44.224;22.528;2023-09-30T19:39:17;6.22;;;4.18;;
66830;SDS011;53739;44.224;22.528;2023-09-30T19:41:43;10.45;;;4.43;;
66830;SDS011;53739;44.224;22.528;2023-09-30T19:44:09;9.30;;;4.50;;
66830;SDS011;53739;44.224;22.528;2023-09-30T19:46:35;8.35;;;4.18;;
66830;SDS011;53739;44.224;22.528;2023-09-30T19:49:01;9.45;;;4.43;;
66830;SDS011;53739;44.224;22.528;2023-09-30T19:51:30;8.20;;;4.45;;
66830;SDS011;53739;44.224;22.528;2023-09-30T19:53:56;8.30;;;4.15;;
66830;SDS011;53739;44.224;22.528;2023-09-30T19:56:22;6.28;;;3.97;;
66830;SDS011;53739;44.224;22.528;2023-09-30T19:58:49;8.90;;;3.78;;
66830;SDS011;53739;44.224;22.528;2023-09-30T20:01:15;7.68;;;3.88;;
66830;SDS011;53739;44.224;22.528;2023-09-30T20:03:44;7.00;;;4.25;;
66830;SDS011;53739;44.224;22.528;2023-09-30T20:06:17;6.07;;;4.03;;
66830;SDS011;53739;44.224;22.528;2023-09-30T20:11:20;5.85;;;3.90;;
66830;SDS011;53739;44.224;22.528;2023-09-30T20:13:47;6.50;;;4.38;;
66830;SDS011;53739;44.224;22.528;2023-09-30T20:16:14;8.38;;;3.92;;
66830;SDS011;53739;44.224;22.528;2023-09-30T20:18:40;5.53;;;3.75;;
66830;SDS011;53739;44.224;22.528;2023-09-30T20:21:06;8.93;;;3.97;;
66830;SDS011;53739;44.224;22.528;2023-09-30T20:23:33;6.25;;;4.15;;
66830;SDS011;53739;44.224;22.528;2023-09-30T20:25:59;5.85;;;4.05;;
66830;SDS011;53739;44.224;22.528;2023-09-30T20:28:28;8.88;;;4.00;;
66830;SDS011;53739;44.224;22.528;2023-09-30T20:30:55;7.65;;;4.45;;
66830;SDS011;53739;44.224;22.528;2023-09-30T20:33:21;9.18;;;4.05;;
66830;SDS011;53739;44.224;22.528;2023-09-30T20:35:48;7.32;;;4.60;;
66830;SDS011;53739;44.224;22.528;2023-09-30T20:38:17;5.85;;;3.72;;
66830;SDS011;53739;44.224;22.528;2023-09-30T20:40:43;7.03;;;4.40;;
66830;SDS011;53739;44.224;22.528;2023-09-30T20:43:11;7.63;;;4.20;;
66830;SDS011;53739;44.224;22.528;2023-09-30T20:45:37;10.68;;;4.57;;
66830;SDS011;53739;44.224;22.528;2023-09-30T20:48:03;6.20;;;3.95;;
66830;SDS011;53739;44.224;22.528;2023-09-30T20:50:30;7.07;;;4.25;;
66830;SDS011;53739;44.224;22.528;2023-09-30T20:52:57;7.65;;;4.72;;
66830;SDS011;53739;44.224;22.528;2023-09-30T20:55:24;8.05;;;4.40;;
66830;SDS011;53739;44.224;22.528;2023-09-30T20:57:50;7.28;;;4.00;;
66830;SDS011;53739;44.224;22.528;2023-09-30T21:00:17;7.30;;;4.90;;
66830;SDS011;53739;44.224;22.528;2023-09-30T21:02:43;6.18;;;4.22;;
66830;SDS011;53739;44.224;22.528;2023-09-30T21:05:10;7.72;;;4.68;;
66830;SDS011;53739;44.224;22.528;2023-09-30T21:07:39;7.57;;;4.47;;
66830;SDS011;53739;44.224;22.528;2023-09-30T21:10:08;9.13;;;4.30;;
66830;SDS011;53739;44.224;22.528;2023-09-30T21:12:38;6.70;;;4.38;;
66830;SDS011;53739;44.224;22.528;2023-09-30T21:15:04;6.43;;;4.60;;
66830;SDS011;53739;44.224;22.528;2023-09-30T21:17:31;11.50;;;5.00;;
66830;SDS011;53739;44.224;22.528;2023-09-30T21:19:57;7.95;;;4.50;;
66830;SDS011;53739;44.224;22.528;2023-09-30T21:22:23;9.27;;;4.68;;
66830;SDS011;53739;44.224;22.528;2023-09-30T21:24:49;7.32;;;5.10;;
66830;SDS011;53739;44.224;22.528;2023-09-30T21:27:18;8.50;;;5.05;;
66830;SDS011;53739;44.224;22.528;2023-09-30T21:29:44;6.05;;;4.32;;
66830;SDS011;53739;44.224;22.528;2023-09-30T21:32:10;8.40;;;5.13;;
66830;SDS011;53739;44.224;22.528;2023-09-30T21:34:37;7.43;;;4.55;;
66830;SDS011;53739;44.224;22.528;2023-09-30T21:37:04;8.07;;;5.00;;
66830;SDS011;53739;44.224;22.528;2023-09-30T21:39:30;9.35;;;5.30;;
66830;SDS011;53739;44.224;22.528;2023-09-30T21:41:57;9.50;;;4.68;;
66830;SDS011;53739;44.224;22.528;2023-09-30T21:44:23;9.18;;;5.30;;